GTI914 VTSP-WMKK
Flight info
| Callsign | GTI914 |
|---|---|
| Flight time | 1h 1m |
| Altitude | 35000 |
| Route | REBE1A REBED B579 VPG A457 TEPUS KAKAK KAKA3K |
| Aircraft | B748/H-SG/L |
Departure
| Time | 2026-05-04 01:00 |
|---|---|
| Airport | Phuket International Airport (VTSP) |
Arrival
| Time | 2026-05-04 02:01 |
|---|---|
| Airport | Kuala Lumpur International Airport (WMKK) |
| Time | Latitude | Longitude | Altitude | Speed | Heading |
|---|---|---|---|---|---|
| 2026-05-04 00:39 | 8.10597 | 98.30462 | 8 ft | 0 kts | 104° |
| 2026-05-04 00:45 | 8.10602 | 98.30443 | 9 ft | 3 kts | 104° |
| 2026-05-04 00:45 | 8.10607 | 98.30423 | 8 ft | 3 kts | 83° |
| 2026-05-04 00:45 | 8.10601 | 98.30402 | 8 ft | 3 kts | 39° |
| 2026-05-04 00:46 | 8.10586 | 98.30393 | 10 ft | 0 kts | 13° |
| 2026-05-04 00:55 | 8.10589 | 98.30393 | 7 ft | 2 kts | 13° |
| 2026-05-04 00:56 | 8.10618 | 98.30396 | 7 ft | 6 kts | 2° |
| 2026-05-04 00:56 | 8.10679 | 98.30399 | 7 ft | 11 kts | 3° |
| 2026-05-04 00:56 | 8.10766 | 98.30418 | 8 ft | 14 kts | 16° |
| 2026-05-04 00:56 | 8.10868 | 98.30445 | 9 ft | 15 kts | 15° |
| 2026-05-04 00:57 | 8.10949 | 98.30467 | 9 ft | 9 kts | 15° |
| 2026-05-04 00:57 | 8.11006 | 98.30479 | 9 ft | 7 kts | 359° |
| 2026-05-04 00:57 | 8.11030 | 98.30465 | 9 ft | 3 kts | 306° |
| 2026-05-04 00:57 | 8.11035 | 98.30446 | 9 ft | 4 kts | 276° |
| 2026-05-04 00:58 | 8.11036 | 98.30399 | 8 ft | 9 kts | 276° |
| 2026-05-04 00:58 | 8.11064 | 98.30359 | 7 ft | 6 kts | 326° |
| 2026-05-04 00:58 | 8.11103 | 98.30348 | 7 ft | 6 kts | 350° |
| 2026-05-04 00:58 | 8.11150 | 98.30344 | 7 ft | 6 kts | 1° |
| 2026-05-04 00:59 | 8.11179 | 98.30356 | 7 ft | 3 kts | 38° |
| 2026-05-04 00:59 | 8.11189 | 98.30370 | 7 ft | 2 kts | 59° |
| 2026-05-04 00:59 | 8.11198 | 98.30403 | 8 ft | 11 kts | 80° |
| 2026-05-04 00:59 | 8.11227 | 98.30707 | 13 ft | 83 kts | 84° |
| 2026-05-04 01:00 | 8.11306 | 98.31539 | 36 ft | 152 kts | 84° |
| 2026-05-04 01:00 | 8.11420 | 98.32799 | 169 ft | 201 kts | 85° |
| 2026-05-04 01:00 | 8.11550 | 98.34270 | 862 ft | 216 kts | 84° |
| 2026-05-04 01:00 | 8.11697 | 98.35785 | 1786 ft | 222 kts | 84° |
| 2026-05-04 01:01 | 8.11859 | 98.37391 | 2211 ft | 235 kts | 84° |
| 2026-05-04 01:01 | 8.12022 | 98.39101 | 2695 ft | 254 kts | 85° |
| 2026-05-04 01:01 | 8.12190 | 98.40915 | 3213 ft | 262 kts | 85° |
| 2026-05-04 01:01 | 8.12363 | 98.42762 | 3750 ft | 265 kts | 85° |
| 2026-05-04 01:02 | 8.12538 | 98.44620 | 4595 ft | 267 kts | 85° |
| 2026-05-04 01:02 | 8.12714 | 98.46502 | 5437 ft | 270 kts | 85° |
| 2026-05-04 01:02 | 8.12893 | 98.48402 | 6279 ft | 274 kts | 85° |
| 2026-05-04 01:02 | 8.13073 | 98.50327 | 7047 ft | 277 kts | 85° |
| 2026-05-04 01:03 | 8.13255 | 98.52271 | 7791 ft | 281 kts | 85° |
| 2026-05-04 01:03 | 8.13440 | 98.54249 | 8548 ft | 284 kts | 85° |
| 2026-05-04 01:03 | 8.13623 | 98.56253 | 9312 ft | 288 kts | 87° |
| 2026-05-04 01:03 | 8.13367 | 98.58253 | 10045 ft | 291 kts | 112° |
| 2026-05-04 01:04 | 8.12272 | 98.59989 | 10662 ft | 301 kts | 136° |
| 2026-05-04 01:04 | 8.10480 | 98.61148 | 11166 ft | 315 kts | 160° |
| 2026-05-04 01:04 | 8.08294 | 98.61533 | 11823 ft | 324 kts | 175° |
| 2026-05-04 01:04 | 8.06018 | 98.61549 | 12552 ft | 330 kts | 179° |
| 2026-05-04 01:05 | 8.03707 | 98.61510 | 13298 ft | 335 kts | 177° |
| 2026-05-04 01:05 | 8.01363 | 98.61589 | 14013 ft | 338 kts | 174° |
| 2026-05-04 01:05 | 7.98997 | 98.61722 | 14690 ft | 343 kts | 175° |
| 2026-05-04 01:05 | 7.96627 | 98.61819 | 15359 ft | 347 kts | 176° |
| 2026-05-04 01:06 | 7.94200 | 98.61890 | 16044 ft | 351 kts | 176° |
| 2026-05-04 01:06 | 7.91747 | 98.61971 | 16721 ft | 355 kts | 175° |
| 2026-05-04 01:06 | 7.89252 | 98.62068 | 17258 ft | 365 kts | 175° |
| 2026-05-04 01:06 | 7.86660 | 98.62167 | 17609 ft | 380 kts | 176° |
| 2026-05-04 01:07 | 7.83959 | 98.62263 | 17919 ft | 395 kts | 176° |
| 2026-05-04 01:07 | 7.81168 | 98.62360 | 18387 ft | 405 kts | 176° |
| 2026-05-04 01:07 | 7.78321 | 98.62462 | 18907 ft | 412 kts | 176° |
| 2026-05-04 01:07 | 7.75441 | 98.62615 | 19468 ft | 416 kts | 170° |
| 2026-05-04 01:08 | 7.72641 | 98.63345 | 20065 ft | 417 kts | 156° |
| 2026-05-04 01:08 | 7.70083 | 98.64733 | 20667 ft | 419 kts | 142° |
| 2026-05-04 01:08 | 7.67821 | 98.66531 | 21257 ft | 422 kts | 139° |
| 2026-05-04 01:08 | 7.65544 | 98.68417 | 21832 ft | 426 kts | 139° |
| 2026-05-04 01:09 | 7.63245 | 98.70331 | 22417 ft | 430 kts | 139° |
| 2026-05-04 01:09 | 7.60913 | 98.72244 | 22976 ft | 434 kts | 140° |
| 2026-05-04 01:09 | 7.58557 | 98.74168 | 23526 ft | 438 kts | 139° |
| 2026-05-04 01:09 | 7.56183 | 98.76120 | 23987 ft | 442 kts | 139° |
| 2026-05-04 01:10 | 7.53793 | 98.78090 | 24442 ft | 445 kts | 140° |
| 2026-05-04 01:10 | 7.51385 | 98.80070 | 24925 ft | 449 kts | 140° |
| 2026-05-04 01:10 | 7.48959 | 98.82061 | 25383 ft | 452 kts | 140° |
| 2026-05-04 01:10 | 7.46511 | 98.84070 | 25842 ft | 455 kts | 140° |
| 2026-05-04 01:11 | 7.44048 | 98.86091 | 26285 ft | 458 kts | 140° |
| 2026-05-04 01:11 | 7.41568 | 98.88125 | 26723 ft | 461 kts | 140° |
| 2026-05-04 01:11 | 7.39070 | 98.90173 | 27149 ft | 464 kts | 140° |
| 2026-05-04 01:11 | 7.36558 | 98.92232 | 27580 ft | 467 kts | 140° |
| 2026-05-04 01:12 | 7.34031 | 98.94304 | 27988 ft | 470 kts | 140° |
| 2026-05-04 01:12 | 7.31489 | 98.96388 | 28395 ft | 473 kts | 140° |
| 2026-05-04 01:12 | 7.28961 | 98.98460 | 28788 ft | 475 kts | 140° |
| 2026-05-04 01:12 | 7.26384 | 99.00571 | 29181 ft | 478 kts | 140° |
| 2026-05-04 01:13 | 7.23791 | 99.02696 | 29564 ft | 481 kts | 140° |
| 2026-05-04 01:13 | 7.21183 | 99.04833 | 29946 ft | 484 kts | 140° |
| 2026-05-04 01:13 | 7.18562 | 99.06979 | 30271 ft | 487 kts | 140° |
| 2026-05-04 01:13 | 7.16820 | 99.08406 | 30485 ft | 488 kts | 141° |
| 2026-05-04 01:14 | 7.14176 | 99.10571 | 30768 ft | 491 kts | 141° |
| 2026-05-04 01:14 | 7.10640 | 99.13465 | 31184 ft | 495 kts | 141° |
| 2026-05-04 01:14 | 7.07961 | 99.15658 | 31471 ft | 498 kts | 141° |
| 2026-05-04 01:14 | 7.05269 | 99.17862 | 31779 ft | 500 kts | 141° |
| 2026-05-04 01:15 | 7.03438 | 99.19360 | 31970 ft | 502 kts | 141° |
| 2026-05-04 01:15 | 7.00753 | 99.21557 | 32273 ft | 504 kts | 141° |
| 2026-05-04 01:15 | 6.98036 | 99.23780 | 32729 ft | 502 kts | 141° |
| 2026-05-04 01:15 | 6.95328 | 99.25995 | 33157 ft | 501 kts | 141° |
| 2026-05-04 01:16 | 6.92626 | 99.28204 | 33585 ft | 500 kts | 141° |
| 2026-05-04 01:16 | 6.89929 | 99.30410 | 33995 ft | 500 kts | 141° |
| 2026-05-04 01:16 | 6.87229 | 99.32618 | 34360 ft | 499 kts | 141° |
| 2026-05-04 01:16 | 6.84536 | 99.34819 | 34705 ft | 499 kts | 141° |
| 2026-05-04 01:17 | 6.81846 | 99.37017 | 34902 ft | 496 kts | 141° |
| 2026-05-04 01:17 | 6.76510 | 99.41378 | 34913 ft | 492 kts | 141° |
| 2026-05-04 01:18 | 6.71231 | 99.45690 | 34920 ft | 490 kts | 141° |
| 2026-05-04 01:18 | 6.65941 | 99.50011 | 34912 ft | 490 kts | 141° |
| 2026-05-04 01:19 | 6.60639 | 99.54339 | 35236 ft | 492 kts | 141° |
| 2026-05-04 01:19 | 6.57981 | 99.56509 | 35553 ft | 492 kts | 141° |
| 2026-05-04 01:19 | 6.55314 | 99.58686 | 35856 ft | 493 kts | 141° |
| 2026-05-04 01:19 | 6.52650 | 99.60860 | 36144 ft | 493 kts | 141° |
| 2026-05-04 01:20 | 6.49986 | 99.63033 | 36447 ft | 494 kts | 141° |
| 2026-05-04 01:20 | 6.47317 | 99.65211 | 36734 ft | 494 kts | 142° |
| 2026-05-04 01:20 | 6.44606 | 99.67314 | 36902 ft | 492 kts | 143° |
| 2026-05-04 01:21 | 6.39267 | 99.71557 | 36901 ft | 487 kts | 142° |
| 2026-05-04 01:21 | 6.33720 | 99.75383 | 36937 ft | 483 kts | 154° |
| 2026-05-04 01:22 | 6.27674 | 99.78268 | 36930 ft | 483 kts | 155° |
| 2026-05-04 01:22 | 6.21602 | 99.81189 | 36932 ft | 483 kts | 154° |
| 2026-05-04 01:23 | 6.15546 | 99.84097 | 36925 ft | 483 kts | 155° |
| 2026-05-04 01:23 | 6.09445 | 99.87023 | 37018 ft | 487 kts | 155° |
| 2026-05-04 01:23 | 6.06384 | 99.88496 | 37258 ft | 488 kts | 155° |
| 2026-05-04 01:24 | 6.03311 | 99.89969 | 37505 ft | 489 kts | 155° |
| 2026-05-04 01:24 | 6.00235 | 99.91442 | 37715 ft | 490 kts | 155° |
| 2026-05-04 01:24 | 5.97153 | 99.92921 | 37933 ft | 491 kts | 155° |
| 2026-05-04 01:24 | 5.94071 | 99.94400 | 38154 ft | 491 kts | 155° |
| 2026-05-04 01:25 | 5.90980 | 99.95883 | 38360 ft | 492 kts | 155° |
| 2026-05-04 01:25 | 5.87884 | 99.97367 | 38570 ft | 492 kts | 155° |
| 2026-05-04 01:25 | 5.84828 | 99.98832 | 38741 ft | 493 kts | 155° |
| 2026-05-04 01:25 | 5.81735 | 100.00315 | 38904 ft | 492 kts | 155° |
| 2026-05-04 01:26 | 5.78656 | 100.01791 | 38911 ft | 488 kts | 155° |
| 2026-05-04 01:26 | 5.72558 | 100.04713 | 38910 ft | 482 kts | 155° |
| 2026-05-04 01:27 | 5.66520 | 100.07607 | 38914 ft | 479 kts | 155° |
| 2026-05-04 01:27 | 5.60514 | 100.10484 | 38917 ft | 479 kts | 155° |
| 2026-05-04 01:28 | 5.54473 | 100.13377 | 38916 ft | 481 kts | 155° |
| 2026-05-04 01:28 | 5.48436 | 100.16267 | 38916 ft | 481 kts | 155° |
| 2026-05-04 01:29 | 5.42387 | 100.19163 | 38917 ft | 481 kts | 155° |
| 2026-05-04 01:29 | 5.36374 | 100.22040 | 38913 ft | 484 kts | 155° |
| 2026-05-04 01:30 | 5.30303 | 100.24946 | 38908 ft | 484 kts | 155° |
| 2026-05-04 01:30 | 5.24163 | 100.27740 | 38918 ft | 484 kts | 156° |
| 2026-05-04 01:31 | 5.18052 | 100.30548 | 38923 ft | 482 kts | 156° |
| 2026-05-04 01:31 | 5.11925 | 100.33273 | 38926 ft | 482 kts | 156° |
| 2026-05-04 01:32 | 5.05814 | 100.36039 | 38927 ft | 482 kts | 156° |
| 2026-05-04 01:32 | 4.99693 | 100.38785 | 38927 ft | 482 kts | 156° |
| 2026-05-04 01:33 | 4.93568 | 100.41542 | 38932 ft | 482 kts | 156° |
| 2026-05-04 01:33 | 4.87481 | 100.44278 | 38932 ft | 482 kts | 156° |
| 2026-05-04 01:34 | 4.81351 | 100.47034 | 38930 ft | 483 kts | 156° |
| 2026-05-04 01:34 | 4.75221 | 100.49789 | 38933 ft | 483 kts | 156° |
| 2026-05-04 01:35 | 4.69092 | 100.52543 | 38935 ft | 483 kts | 156° |
| 2026-05-04 01:35 | 4.62958 | 100.55299 | 38930 ft | 483 kts | 156° |
| 2026-05-04 01:36 | 4.56825 | 100.58054 | 38934 ft | 484 kts | 156° |
| 2026-05-04 01:36 | 4.50661 | 100.60822 | 38875 ft | 485 kts | 156° |
| 2026-05-04 01:36 | 4.47613 | 100.62191 | 38607 ft | 489 kts | 156° |
| 2026-05-04 01:37 | 4.44493 | 100.63592 | 37992 ft | 493 kts | 155° |
| 2026-05-04 01:37 | 4.41360 | 100.64998 | 37457 ft | 493 kts | 155° |
| 2026-05-04 01:37 | 4.38226 | 100.66404 | 36913 ft | 493 kts | 155° |
| 2026-05-04 01:37 | 4.35102 | 100.67806 | 36383 ft | 492 kts | 155° |
| 2026-05-04 01:38 | 4.31970 | 100.69212 | 35842 ft | 492 kts | 155° |
| 2026-05-04 01:38 | 4.28845 | 100.70614 | 35304 ft | 492 kts | 155° |
| 2026-05-04 01:38 | 4.25721 | 100.72015 | 34754 ft | 492 kts | 155° |
| 2026-05-04 01:38 | 4.22594 | 100.73418 | 34218 ft | 492 kts | 155° |
| 2026-05-04 01:39 | 4.19494 | 100.74869 | 33652 ft | 491 kts | 149° |
| 2026-05-04 01:39 | 4.16679 | 100.76779 | 33103 ft | 489 kts | 138° |
| 2026-05-04 01:39 | 4.14257 | 100.79172 | 32549 ft | 488 kts | 130° |
| 2026-05-04 01:39 | 4.12037 | 100.81758 | 31977 ft | 490 kts | 130° |
| 2026-05-04 01:40 | 4.09823 | 100.84371 | 31402 ft | 492 kts | 129° |
| 2026-05-04 01:40 | 4.07609 | 100.86986 | 30824 ft | 493 kts | 130° |
| 2026-05-04 01:40 | 4.05405 | 100.89568 | 30248 ft | 495 kts | 130° |
| 2026-05-04 01:40 | 4.03161 | 100.92193 | 29604 ft | 496 kts | 130° |
| 2026-05-04 01:41 | 4.00920 | 100.94825 | 29007 ft | 496 kts | 129° |
| 2026-05-04 01:41 | 3.98687 | 100.97452 | 28385 ft | 496 kts | 129° |
| 2026-05-04 01:41 | 3.96450 | 101.00078 | 27769 ft | 493 kts | 130° |
| 2026-05-04 01:41 | 3.94228 | 101.02682 | 27171 ft | 490 kts | 130° |
| 2026-05-04 01:42 | 3.92019 | 101.05272 | 26576 ft | 487 kts | 130° |
| 2026-05-04 01:42 | 3.89825 | 101.07849 | 25964 ft | 485 kts | 130° |
| 2026-05-04 01:42 | 3.87642 | 101.10411 | 25368 ft | 483 kts | 130° |
| 2026-05-04 01:42 | 3.85464 | 101.12965 | 24769 ft | 480 kts | 130° |
| 2026-05-04 01:43 | 3.83301 | 101.15502 | 24186 ft | 478 kts | 130° |
| 2026-05-04 01:43 | 3.81141 | 101.18035 | 23592 ft | 477 kts | 130° |
| 2026-05-04 01:43 | 3.78993 | 101.20555 | 22953 ft | 474 kts | 130° |
| 2026-05-04 01:43 | 3.76704 | 101.22898 | 22373 ft | 470 kts | 140° |
| 2026-05-04 01:44 | 3.74084 | 101.24762 | 21761 ft | 467 kts | 147° |
| 2026-05-04 01:44 | 3.71338 | 101.26484 | 21141 ft | 464 kts | 147° |
| 2026-05-04 01:44 | 3.68610 | 101.28182 | 20511 ft | 461 kts | 147° |
| 2026-05-04 01:44 | 3.65898 | 101.29877 | 19911 ft | 458 kts | 147° |
| 2026-05-04 01:45 | 3.63206 | 101.31568 | 19305 ft | 455 kts | 147° |
| 2026-05-04 01:45 | 3.60535 | 101.33244 | 18721 ft | 452 kts | 147° |
| 2026-05-04 01:45 | 3.55234 | 101.36560 | 17484 ft | 445 kts | 147° |
| 2026-05-04 01:46 | 3.52622 | 101.38196 | 16887 ft | 440 kts | 147° |
| 2026-05-04 01:46 | 3.50034 | 101.39818 | 16317 ft | 436 kts | 147° |
| 2026-05-04 01:46 | 3.47475 | 101.41416 | 15816 ft | 431 kts | 148° |
| 2026-05-04 01:46 | 3.44775 | 101.42689 | 15261 ft | 429 kts | 159° |
| 2026-05-04 01:47 | 3.41902 | 101.43424 | 14665 ft | 418 kts | 168° |
| 2026-05-04 01:47 | 3.39123 | 101.43920 | 14128 ft | 394 kts | 168° |
| 2026-05-04 01:47 | 3.36500 | 101.44384 | 13602 ft | 373 kts | 168° |
| 2026-05-04 01:47 | 3.33996 | 101.44832 | 13122 ft | 360 kts | 168° |
| 2026-05-04 01:48 | 3.31601 | 101.45265 | 12651 ft | 349 kts | 168° |
| 2026-05-04 01:48 | 3.29243 | 101.45688 | 12188 ft | 338 kts | 168° |
| 2026-05-04 01:48 | 3.26966 | 101.46095 | 11753 ft | 327 kts | 168° |
| 2026-05-04 01:48 | 3.24753 | 101.46492 | 11330 ft | 318 kts | 168° |
| 2026-05-04 01:49 | 3.22601 | 101.46879 | 10911 ft | 310 kts | 168° |
| 2026-05-04 01:49 | 3.20500 | 101.47255 | 10503 ft | 303 kts | 169° |
| 2026-05-04 01:49 | 3.18448 | 101.47623 | 10110 ft | 297 kts | 169° |
| 2026-05-04 01:49 | 3.16435 | 101.47984 | 9717 ft | 291 kts | 169° |
| 2026-05-04 01:50 | 3.14450 | 101.48340 | 9353 ft | 287 kts | 169° |
| 2026-05-04 01:50 | 3.12513 | 101.48687 | 8966 ft | 279 kts | 169° |
| 2026-05-04 01:50 | 3.10617 | 101.49026 | 8597 ft | 272 kts | 169° |
| 2026-05-04 01:50 | 3.08771 | 101.49357 | 8227 ft | 266 kts | 169° |
| 2026-05-04 01:51 | 3.06958 | 101.49629 | 7870 ft | 264 kts | 182° |
| 2026-05-04 01:51 | 3.05201 | 101.49167 | 7632 ft | 264 kts | 212° |
| 2026-05-04 01:51 | 3.03901 | 101.47903 | 7498 ft | 264 kts | 242° |
| 2026-05-04 01:51 | 3.03365 | 101.46164 | 7339 ft | 265 kts | 269° |
| 2026-05-04 01:52 | 3.03691 | 101.44401 | 6915 ft | 256 kts | 299° |
| 2026-05-04 01:52 | 3.04774 | 101.43013 | 6502 ft | 254 kts | 324° |
| 2026-05-04 01:52 | 3.06361 | 101.42312 | 6144 ft | 251 kts | 353° |
| 2026-05-04 01:52 | 3.08069 | 101.42499 | 5751 ft | 251 kts | 23° |
| 2026-05-04 01:53 | 3.09425 | 101.43518 | 5520 ft | 250 kts | 53° |
| 2026-05-04 01:53 | 3.10126 | 101.45068 | 5327 ft | 240 kts | 79° |
| 2026-05-04 01:53 | 3.10084 | 101.46707 | 5101 ft | 237 kts | 105° |
| 2026-05-04 01:53 | 3.09326 | 101.48139 | 5009 ft | 232 kts | 132° |
| 2026-05-04 01:54 | 3.08118 | 101.49217 | 5011 ft | 235 kts | 141° |
| 2026-05-04 01:54 | 3.06853 | 101.50254 | 5009 ft | 234 kts | 139° |
| 2026-05-04 01:54 | 3.05636 | 101.51338 | 5001 ft | 233 kts | 139° |
| 2026-05-04 01:54 | 3.04334 | 101.52310 | 5003 ft | 234 kts | 146° |
| 2026-05-04 01:55 | 3.02980 | 101.53226 | 5002 ft | 235 kts | 146° |
| 2026-05-04 01:55 | 3.01629 | 101.54138 | 5010 ft | 235 kts | 146° |
| 2026-05-04 01:55 | 3.00277 | 101.55049 | 5005 ft | 233 kts | 146° |
| 2026-05-04 01:55 | 2.98920 | 101.55965 | 4789 ft | 237 kts | 146° |
| 2026-05-04 01:56 | 2.97566 | 101.56878 | 4474 ft | 233 kts | 146° |
| 2026-05-04 01:56 | 2.96254 | 101.57763 | 4161 ft | 229 kts | 146° |
| 2026-05-04 01:56 | 2.94946 | 101.58645 | 3875 ft | 225 kts | 146° |
| 2026-05-04 01:56 | 2.93655 | 101.59515 | 3587 ft | 222 kts | 146° |
| 2026-05-04 01:57 | 2.92387 | 101.60370 | 3316 ft | 216 kts | 146° |
| 2026-05-04 01:57 | 2.91175 | 101.61188 | 3041 ft | 204 kts | 146° |
| 2026-05-04 01:57 | 2.90026 | 101.61964 | 2695 ft | 196 kts | 146° |
| 2026-05-04 01:57 | 2.88915 | 101.62713 | 2360 ft | 188 kts | 146° |
| 2026-05-04 01:58 | 2.87864 | 101.63422 | 2087 ft | 177 kts | 146° |
| 2026-05-04 01:58 | 2.86860 | 101.64099 | 1909 ft | 173 kts | 146° |
| 2026-05-04 01:58 | 2.85855 | 101.64777 | 1840 ft | 174 kts | 147° |
| 2026-05-04 01:58 | 2.84847 | 101.65455 | 1641 ft | 172 kts | 146° |
| 2026-05-04 01:59 | 2.83871 | 101.66114 | 1416 ft | 171 kts | 146° |
| 2026-05-04 01:59 | 2.82887 | 101.66778 | 1196 ft | 170 kts | 146° |
| 2026-05-04 01:59 | 2.81908 | 101.67437 | 972 ft | 169 kts | 146° |
| 2026-05-04 01:59 | 2.80933 | 101.68095 | 794 ft | 169 kts | 146° |
| 2026-05-04 02:00 | 2.79956 | 101.68755 | 618 ft | 172 kts | 146° |
| 2026-05-04 02:00 | 2.78981 | 101.69422 | 390 ft | 168 kts | 145° |
| 2026-05-04 02:00 | 2.78020 | 101.70073 | 176 ft | 163 kts | 146° |
| 2026-05-04 02:00 | 2.77128 | 101.70666 | 62 ft | 134 kts | 146° |
| 2026-05-04 02:01 | 2.76507 | 101.71086 | 58 ft | 83 kts | 146° |
| 2026-05-04 02:01 | 2.76244 | 101.71265 | 61 ft | 57 kts | 146° |
| 2026-05-04 02:01 | 2.75966 | 101.71451 | 60 ft | 39 kts | 146° |
| 2026-05-04 02:01 | 2.75774 | 101.71550 | 62 ft | 27 kts | 165° |
| 2026-05-04 02:02 | 2.75596 | 101.71572 | 64 ft | 12 kts | 176° |
| 2026-05-04 02:02 | 2.75569 | 101.71563 | 64 ft | 3 kts | 221° |
| 2026-05-04 02:02 | 2.75562 | 101.71552 | 57 ft | 2 kts | 238° |
| 2026-05-04 02:02 | 2.75551 | 101.71534 | 61 ft | 4 kts | 238° |
| 2026-05-04 02:03 | 2.75530 | 101.71500 | 59 ft | 7 kts | 238° |
| 2026-05-04 02:03 | 2.75505 | 101.71458 | 59 ft | 7 kts | 238° |
| 2026-05-04 02:03 | 2.75476 | 101.71413 | 59 ft | 8 kts | 235° |
| 2026-05-04 02:03 | 2.75443 | 101.71368 | 61 ft | 8 kts | 233° |
| 2026-05-04 02:04 | 2.75407 | 101.71319 | 60 ft | 8 kts | 240° |
| 2026-05-04 02:04 | 2.75408 | 101.71278 | 62 ft | 4 kts | 296° |
| 2026-05-04 02:04 | 2.75428 | 101.71259 | 59 ft | 5 kts | 320° |
| 2026-05-04 02:04 | 2.75465 | 101.71231 | 60 ft | 8 kts | 324° |
| 2026-05-04 02:05 | 2.75520 | 101.71195 | 60 ft | 11 kts | 327° |
| 2026-05-04 02:05 | 2.75587 | 101.71152 | 61 ft | 11 kts | 327° |
| 2026-05-04 02:05 | 2.75645 | 101.71114 | 61 ft | 7 kts | 340° |
| 2026-05-04 02:05 | 2.75673 | 101.71120 | 60 ft | 2 kts | 32° |
| 2026-05-04 02:06 | 2.75680 | 101.71128 | 60 ft | 1 kts | 53° |
| 2026-05-04 02:06 | 2.75687 | 101.71138 | 60 ft | 3 kts | 55° |
| 2026-05-04 02:06 | 2.75697 | 101.71153 | 61 ft | 2 kts | 55° |
| 2026-05-04 02:06 | 2.75706 | 101.71165 | 58 ft | 2 kts | 55° |
| 2026-05-04 02:07 | 2.75707 | 101.71167 | 58 ft | 0 kts | 56° |
| 2026-05-04 02:07 | 2.75709 | 101.71169 | 58 ft | 0 kts | 56° |